Time;durP1;ratioP1;P1;durP2;ratioP2;P2;SDS_P1;SDS_P2;PMS_P1;PMS_P2;Temp;Humidity;BMP_temperature;BMP_pressure;BME280_temperature;BME280_humidity;BME280_pressure;Samples;Min_cycle;Max_cycle;Signal;HPM_P1;HPM_P2
2022/10/04 00:01:58;;;;;;;1.67;0.70;;;16.50;83.80;;;;;;5064369;28;20064;-77
2022/10/04 00:04:41;;;;;;;1.42;0.73;;;16.50;83.70;;;;;;5065383;28;20086;-77
2022/10/04 00:07:13;;;;;;;1.75;0.70;;;16.60;83.60;;;;;;5065340;28;20029;-77
2022/10/04 00:09:48;;;;;;;1.75;0.80;;;16.60;83.60;;;;;;5065952;28;20021;-77
2022/10/04 00:12:34;;;;;;;1.65;0.60;;;16.60;83.50;;;;;;5065091;28;20202;-77
2022/10/04 00:15:04;;;;;;;2.17;0.70;;;16.60;83.40;;;;;;5064416;28;20379;-78
2022/10/04 00:17:34;;;;;;;1.15;0.65;;;16.60;83.50;;;;;;5066318;28;20032;-77
2022/10/04 00:20:01;;;;;;;1.67;0.70;;;16.60;83.50;;;;;;5065986;28;20494;-77
2022/10/04 00:22:28;;;;;;;1.00;0.80;;;16.60;83.60;;;;;;5063898;28;20039;-77
2022/10/04 00:25:06;;;;;;;0.95;0.70;;;16.50;83.70;;;;;;5066472;28;20101;-77
2022/10/04 00:27:33;;;;;;;1.38;0.70;;;16.50;83.60;;;;;;5066087;28;20029;-77
2022/10/04 00:30:01;;;;;;;1.35;0.77;;;16.50;83.70;;;;;;5065401;28;20020;-77
2022/10/04 00:32:37;;;;;;;0.85;0.60;;;16.50;83.70;;;;;;5067704;28;20444;-77
2022/10/04 00:35:23;;;;;;;1.15;0.60;;;16.50;83.60;;;;;;5069229;28;20036;-77
2022/10/04 00:38:05;;;;;;;0.50;0.50;;;16.50;83.80;;;;;;5069324;28;20044;-77
2022/10/04 00:40:54;;;;;;;1.13;0.60;;;16.50;83.80;;;;;;5068879;28;20455;-78
2022/10/04 00:43:39;;;;;;;1.35;0.60;;;16.50;83.90;;;;;;5068182;28;20490;-77
2022/10/04 00:46:11;;;;;;;1.00;0.60;;;16.50;83.90;;;;;;5067616;28;20036;-77
2022/10/04 00:49:13;;;;;;;1.25;0.70;;;16.50;84.10;;;;;;5069386;28;20035;-78
2022/10/04 00:51:58;;;;;;;0.90;0.60;;;16.50;83.90;;;;;;5064546;28;20045;-78
2022/10/04 00:54:35;;;;;;;0.75;0.60;;;16.50;84.00;;;;;;5073887;28;20036;-77
2022/10/04 00:57:06;;;;;;;0.88;0.70;;;16.50;83.90;;;;;;5071955;28;20071;-77
2022/10/04 00:59:42;;;;;;;1.33;0.70;;;16.50;83.90;;;;;;5068705;28;20556;-77
2022/10/04 01:02:26;;;;;;;1.40;0.73;;;16.50;83.90;;;;;;5068852;28;20039;-77
2022/10/04 01:05:02;;;;;;;1.55;0.70;;;16.50;83.90;;;;;;5068123;28;20090;-77
2022/10/04 01:07:45;;;;;;;0.90;0.50;;;16.50;83.80;;;;;;5068132;28;20036;-77
2022/10/04 01:10:20;;;;;;;1.10;0.60;;;16.50;83.70;;;;;;5067818;28;20085;-77
2022/10/04 01:12:49;;;;;;;1.50;0.93;;;16.50;83.60;;;;;;5069283;28;20027;-77
2022/10/04 01:15:25;;;;;;;1.38;0.68;;;16.60;83.60;;;;;;5067837;28;20033;-77
2022/10/04 01:18:10;;;;;;;1.63;0.80;;;16.60;83.50;;;;;;5068847;28;20032;-78
2022/10/04 01:20:48;;;;;;;1.13;0.90;;;16.60;83.40;;;;;;5067317;28;20147;-78
2022/10/04 01:23:32;;;;;;;1.45;0.88;;;16.60;83.40;;;;;;5068721;28;20032;-77
2022/10/04 01:25:58;;;;;;;1.00;0.70;;;16.60;83.60;;;;;;5067619;28;20048;-77
2022/10/04 01:28:25;;;;;;;2.08;0.70;;;16.50;83.60;;;;;;5068423;28;20033;-77
2022/10/04 01:30:51;;;;;;;1.10;0.70;;;16.50;83.60;;;;;;5068041;28;20035;-77
2022/10/04 01:33:18;;;;;;;1.00;0.70;;;16.50;83.80;;;;;;5066793;28;20024;-77
2022/10/04 01:35:43;;;;;;;1.20;0.70;;;16.50;83.70;;;;;;5068068;28;20156;-77
2022/10/04 01:38:10;;;;;;;1.50;0.80;;;16.50;83.70;;;;;;5066503;28;20111;-77
2022/10/04 01:40:52;;;;;;;1.00;0.70;;;16.50;83.80;;;;;;5067103;28;20482;-77
2022/10/04 01:43:26;;;;;;;1.90;0.70;;;16.50;83.90;;;;;;5065610;28;20032;-77
2022/10/04 01:45:57;;;;;;;1.50;0.55;;;16.50;83.90;;;;;;5067596;28;20840;-79
2022/10/04 01:48:28;;;;;;;0.90;0.60;;;16.40;83.80;;;;;;5067865;28;20490;-76
2022/10/04 01:51:13;;;;;;;2.05;0.80;;;16.40;83.90;;;;;;5067771;28;20020;-77
2022/10/04 01:54:08;;;;;;;0.88;0.60;;;16.40;84.00;;;;;;5066834;28;20036;-77
2022/10/04 01:57:05;;;;;;;1.25;0.55;;;16.40;84.00;;;;;;5067460;28;20115;-80
2022/10/04 01:59:40;;;;;;;1.70;0.85;;;16.40;83.90;;;;;;5062867;28;20033;-78
2022/10/04 02:02:14;;;;;;;1.42;0.85;;;16.50;84.20;;;;;;5065739;28;20547;-77
2022/10/04 02:04:41;;;;;;;1.27;0.80;;;16.50;84.00;;;;;;5067417;28;20044;-77
2022/10/04 02:07:12;;;;;;;1.38;0.70;;;16.50;84.00;;;;;;5067341;28;20490;-77
2022/10/04 02:09:42;;;;;;;1.00;0.60;;;16.50;84.00;;;;;;5067762;28;20039;-77
2022/10/04 02:12:08;;;;;;;1.05;0.70;;;16.50;83.90;;;;;;5066116;28;20025;-77
2022/10/04 02:14:35;;;;;;;1.60;0.70;;;16.50;83.90;;;;;;5066219;28;20032;-77
2022/10/04 02:17:09;;;;;;;2.08;0.85;;;16.50;83.70;;;;;;5067252;28;20142;-79
2022/10/04 02:19:38;;;;;;;1.52;0.63;;;16.50;83.60;;;;;;5067563;28;20028;-77
2022/10/04 02:22:06;;;;;;;1.77;0.90;;;16.50;83.40;;;;;;5067676;28;20056;-77
2022/10/04 02:24:41;;;;;;;1.77;0.90;;;16.50;83.20;;;;;;5066261;28;20032;-77
2022/10/04 02:27:06;;;;;;;1.40;0.70;;;16.50;83.50;;;;;;5065581;28;20120;-77
2022/10/04 02:29:32;;;;;;;1.38;0.80;;;16.50;83.60;;;;;;5067652;28;20139;-76
2022/10/04 02:34:45;;;;;;;1.02;0.70;;;16.50;83.70;;;;;;5067680;28;20039;-77
2022/10/04 02:37:11;;;;;;;1.15;0.70;;;16.50;83.60;;;;;;5065109;28;20097;-77
2022/10/04 02:39:42;;;;;;;1.77;0.65;;;16.50;83.80;;;;;;5067752;28;20086;-77
2022/10/04 02:42:36;;;;;;;0.95;0.70;;;16.50;83.80;;;;;;5064447;28;20498;-76
2022/10/04 02:45:21;;;;;;;2.03;0.95;;;16.40;83.80;;;;;;5060892;28;20127;-77
2022/10/04 02:47:53;;;;;;;1.10;0.65;;;16.50;83.90;;;;;;5065631;28;20020;-78
2022/10/04 02:50:29;;;;;;;1.20;0.70;;;16.40;83.90;;;;;;5066009;28;20514;-77
2022/10/04 02:53:23;;;;;;;1.52;0.70;;;16.50;84.00;;;;;;5066175;28;20040;-78
2022/10/04 02:55:49;;;;;;;1.67;0.68;;;16.40;84.00;;;;;;5066730;28;20028;-77
2022/10/04 02:58:19;;;;;;;1.33;0.80;;;16.40;84.00;;;;;;5067032;28;20029;-78
2022/10/04 03:00:56;;;;;;;1.13;0.70;;;16.40;84.50;;;;;;5065778;28;20021;-78
2022/10/04 03:03:29;;;;;;;0.63;0.60;;;16.40;84.10;;;;;;5067317;28;20077;-78
2022/10/04 03:06:21;;;;;;;0.95;0.70;;;16.40;84.20;;;;;;5067086;28;20547;-77
2022/10/04 03:08:52;;;;;;;1.00;0.60;;;16.40;84.10;;;;;;5062667;28;20033;-80
2022/10/04 03:11:21;;;;;;;1.90;0.70;;;16.40;84.10;;;;;;5066589;28;20028;-77
2022/10/04 03:13:51;;;;;;;0.80;0.60;;;16.40;84.00;;;;;;5065795;28;20170;-77
2022/10/04 03:16:17;;;;;;;0.93;0.63;;;16.40;83.90;;;;;;5065535;28;20031;-77
2022/10/04 03:18:44;;;;;;;1.42;0.70;;;16.50;83.90;;;;;;5066622;28;20040;-77
2022/10/04 03:21:13;;;;;;;0.80;0.70;;;16.50;83.80;;;;;;5065572;28;20078;-76
2022/10/04 03:23:40;;;;;;;1.73;0.75;;;16.50;83.70;;;;;;5066076;28;20513;-76
2022/10/04 03:26:42;;;;;;;1.55;0.80;;;16.50;83.70;;;;;;5067142;28;20116;-80
2022/10/04 03:29:10;;;;;;;2.17;0.95;;;16.50;83.40;;;;;;5064708;28;20021;-76
2022/10/04 03:31:42;;;;;;;1.42;0.70;;;16.50;83.60;;;;;;5064460;28;20024;-77
2022/10/04 03:34:37;;;;;;;1.27;0.90;;;16.50;83.80;;;;;;5066187;28;20032;-77
2022/10/04 03:37:08;;;;;;;1.42;1.00;;;16.50;83.90;;;;;;5063246;28;20032;-77
2022/10/04 03:39:39;;;;;;;1.52;0.90;;;16.50;83.90;;;;;;5066342;28;20052;-76
2022/10/04 03:42:28;;;;;;;0.73;0.60;;;16.40;83.80;;;;;;5064445;28;20036;-76
2022/10/04 03:44:59;;;;;;;0.98;0.70;;;16.40;83.80;;;;;;5063955;28;20282;-76
2022/10/04 03:47:29;;;;;;;1.77;0.90;;;16.40;83.90;;;;;;5065447;28;20086;-77
2022/10/04 03:50:01;;;;;;;1.50;0.80;;;16.50;84.00;;;;;;5064992;28;20567;-76
2022/10/04 03:52:32;;;;;;;0.95;0.75;;;16.40;84.00;;;;;;5063789;28;20190;-76
2022/10/04 03:55:02;;;;;;;1.15;0.70;;;16.40;84.00;;;;;;5065687;28;20039;-77
2022/10/04 03:57:29;;;;;;;1.75;0.70;;;16.40;84.00;;;;;;5061864;28;20043;-77
2022/10/04 03:59:55;;;;;;;0.85;0.60;;;16.40;84.10;;;;;;5062898;28;20052;-77
2022/10/04 04:02:34;;;;;;;1.60;0.80;;;16.40;84.10;;;;;;5063957;28;20028;-77
2022/10/04 04:05:28;;;;;;;1.42;0.70;;;16.40;84.20;;;;;;5065416;28;20039;-77
2022/10/04 04:08:11;;;;;;;1.38;0.70;;;16.40;84.20;;;;;;5063197;28;20024;-77
2022/10/04 04:10:40;;;;;;;1.45;0.70;;;16.40;84.10;;;;;;5067525;28;20068;-80
2022/10/04 04:13:30;;;;;;;1.00;0.70;;;16.40;84.20;;;;;;5069756;28;20073;-79
2022/10/04 04:15:59;;;;;;;1.15;0.82;;;16.40;84.20;;;;;;5081714;28;20032;-79
2022/10/04 04:18:29;;;;;;;1.65;0.80;;;16.40;84.10;;;;;;5080286;28;20103;-78
2022/10/04 04:20:57;;;;;;;0.77;0.60;;;16.50;84.10;;;;;;5068461;28;20035;-79
2022/10/04 04:23:27;;;;;;;2.25;0.90;;;16.40;83.90;;;;;;5065329;28;20444;-78
2022/10/04 04:26:00;;;;;;;0.60;0.60;;;16.50;83.90;;;;;;5082866;28;20044;-80
2022/10/04 04:28:42;;;;;;;1.17;0.70;;;16.50;83.80;;;;;;5083585;28;20094;-78
2022/10/04 04:31:22;;;;;;;1.00;0.77;;;16.50;83.60;;;;;;5081730;28;20025;-78
2022/10/04 04:33:59;;;;;;;2.42;1.08;;;16.50;83.60;;;;;;5064474;28;20419;-77
2022/10/04 04:36:38;;;;;;;1.55;0.73;;;16.50;83.60;;;;;;5064648;28;20146;-78
2022/10/04 04:42:09;;;;;;;1.10;0.70;;;16.40;83.90;;;;;;5053376;28;20063;-78
2022/10/04 04:44:37;;;;;;;2.03;1.00;;;16.50;84.10;;;;;;5061037;28;20036;-77
2022/10/04 04:47:25;;;;;;;1.05;0.77;;;16.40;84.00;;;;;;5064695;28;20020;-78
2022/10/04 04:49:53;;;;;;;0.85;0.75;;;16.40;84.00;;;;;;5055998;28;20028;-77
2022/10/04 04:52:24;;;;;;;0.98;0.80;;;16.40;84.10;;;;;;5068816;28;20131;-79
2022/10/04 04:54:51;;;;;;;2.00;0.90;;;16.40;84.10;;;;;;5065417;28;20032;-78
2022/10/04 04:57:17;;;;;;;2.08;0.85;;;16.40;84.10;;;;;;5067282;28;20267;-79
2022/10/04 04:59:46;;;;;;;1.88;1.00;;;16.40;84.70;;;;;;5067164;28;20031;-79
2022/10/04 05:02:33;;;;;;;1.58;0.80;;;16.40;84.20;;;;;;5066867;28;20036;-78
2022/10/04 05:05:19;;;;;;;1.05;0.70;;;16.40;84.20;;;;;;5065682;28;20032;-77
2022/10/04 05:07:45;;;;;;;1.50;0.90;;;16.40;84.20;;;;;;5062045;28;20048;-77
2022/10/04 05:10:30;;;;;;;0.98;0.80;;;16.40;84.20;;;;;;5063191;28;20025;-77
2022/10/04 05:12:58;;;;;;;1.73;0.90;;;16.30;84.10;;;;;;5063726;28;20017;-77
2022/10/04 05:15:25;;;;;;;1.55;0.90;;;16.40;84.20;;;;;;5073182;28;20036;-78
2022/10/04 05:17:51;;;;;;;1.50;1.00;;;16.40;84.20;;;;;;5065395;28;20032;-77
2022/10/04 05:20:17;;;;;;;2.03;1.00;;;16.40;84.10;;;;;;5067813;28;20039;-77
2022/10/04 05:22:46;;;;;;;1.65;1.00;;;16.40;84.10;;;;;;5067175;28;20090;-78
2022/10/04 05:25:32;;;;;;;1.75;1.10;;;16.40;84.00;;;;;;5070273;28;20107;-79
2022/10/04 05:27:58;;;;;;;1.40;0.95;;;16.40;83.80;;;;;;5068892;28;20028;-77
2022/10/04 05:31:03;;;;;;;1.70;0.90;;;16.40;83.80;;;;;;5068948;28;20052;-77
2022/10/04 05:33:50;;;;;;;1.67;1.10;;;16.50;83.80;;;;;;5068144;28;20035;-78
2022/10/04 05:36:39;;;;;;;2.17;1.10;;;16.50;83.60;;;;;;5067246;28;20035;-77
2022/10/04 05:39:24;;;;;;;3.15;1.17;;;16.50;83.50;;;;;;5059683;28;20473;-77
2022/10/04 05:42:02;;;;;;;2.47;1.20;;;16.50;83.70;;;;;;5067060;28;20056;-77
2022/10/04 05:44:33;;;;;;;2.75;1.23;;;16.40;83.80;;;;;;5067049;28;20386;-77
2022/10/04 05:47:01;;;;;;;2.53;1.30;;;16.40;83.80;;;;;;5067313;28;20021;-77
2022/10/04 05:49:42;;;;;;;3.70;1.50;;;16.40;83.90;;;;;;5066995;28;20024;-77
2022/10/04 05:52:24;;;;;;;3.40;1.58;;;16.40;83.80;;;;;;5066308;28;20426;-77
2022/10/04 05:55:20;;;;;;;3.47;1.45;;;16.40;83.90;;;;;;5068674;28;20082;-77
2022/10/04 05:58:16;;;;;;;3.47;1.50;;;16.40;83.90;;;;;;5066822;28;20566;-77
2022/10/04 06:01:09;;;;;;;2.63;1.45;;;16.40;83.90;;;;;;5067568;28;20056;-77
2022/10/04 06:03:53;;;;;;;3.30;1.40;;;16.40;84.00;;;;;;5066255;28;20464;-77
2022/10/04 06:06:28;;;;;;;2.85;1.30;;;16.40;84.00;;;;;;5068030;28;20035;-77
2022/10/04 06:09:29;;;;;;;2.60;1.30;;;16.40;84.10;;;;;;5068530;28;20489;-77
2022/10/04 06:12:16;;;;;;;2.67;1.33;;;16.40;84.00;;;;;;5066294;28;20024;-78
2022/10/04 06:15:08;;;;;;;3.45;1.50;;;16.40;84.00;;;;;;5067943;28;20040;-77
2022/10/04 06:17:40;;;;;;;2.38;1.20;;;16.40;84.00;;;;;;5066311;28;20024;-77
2022/10/04 06:20:16;;;;;;;2.08;1.20;;;16.50;83.90;;;;;;5069652;28;20059;-78
2022/10/04 06:22:46;;;;;;;2.90;1.23;;;16.40;83.90;;;;;;5070303;28;20386;-77
2022/10/04 06:25:26;;;;;;;2.22;1.20;;;16.40;83.90;;;;;;5069921;28;20529;-78
2022/10/04 06:28:42;;;;;;;2.85;1.23;;;16.40;83.80;;;;;;5068679;28;20020;-78
2022/10/04 06:31:26;;;;;;;1.98;1.10;;;16.40;83.80;;;;;;5026369;28;20510;-78
2022/10/04 06:34:22;;;;;;;2.45;1.13;;;16.50;83.60;;;;;;5026690;28;20038;-78
2022/10/04 06:37:35;;;;;;;3.40;1.30;;;16.50;83.50;;;;;;5060313;28;20044;-77
2022/10/04 06:40:33;;;;;;;2.33;1.20;;;16.60;83.30;;;;;;5036985;28;20118;-77
2022/10/04 06:43:07;;;;;;;2.30;1.20;;;16.60;83.20;;;;;;5068697;28;20322;-77
2022/10/04 06:46:03;;;;;;;2.70;1.20;;;16.60;83.10;;;;;;5066854;28;20116;-78
2022/10/04 06:49:06;;;;;;;2.10;1.10;;;16.60;83.10;;;;;;5052273;28;20039;-77
2022/10/04 06:51:52;;;;;;;2.63;1.35;;;16.60;83.20;;;;;;5067038;28;20028;-77
2022/10/04 06:54:30;;;;;;;2.35;1.20;;;16.60;83.30;;;;;;5067329;28;20036;-77
2022/10/04 06:57:30;;;;;;;2.50;1.30;;;16.60;83.40;;;;;;5066473;28;20321;-78
2022/10/04 07:00:20;;;;;;;3.25;1.40;;;16.50;83.40;;;;;;5065061;28;20059;-78
2022/10/04 07:02:58;;;;;;;3.15;1.30;;;16.50;83.40;;;;;;5066082;28;20032;-77
2022/10/04 07:05:38;;;;;;;2.95;1.35;;;16.50;83.40;;;;;;5068056;28;20505;-78
2022/10/04 07:08:32;;;;;;;2.25;1.30;;;16.60;83.40;;;;;;5067819;28;20036;-77
2022/10/04 07:11:35;;;;;;;2.35;1.10;;;16.50;83.40;;;;;;5067135;28;20017;-77
2022/10/04 07:14:21;;;;;;;2.55;1.17;;;16.50;83.20;;;;;;5066602;28;20651;-77
2022/10/04 07:16:46;;;;;;;3.65;1.40;;;16.60;83.30;;;;;;5067384;28;20062;-78
2022/10/04 07:19:56;;;;;;;2.53;1.15;;;16.50;83.50;;;;;;5066564;28;20048;-78
2022/10/04 07:22:36;;;;;;;4.00;1.40;;;16.60;83.20;;;;;;5066138;28;20119;-78
2022/10/04 07:25:19;;;;;;;1.70;1.00;;;16.60;83.30;;;;;;5067239;28;20040;-78
2022/10/04 07:31:05;;;;;;;2.00;1.20;;;16.60;83.30;;;;;;5068289;28;20032;-77
2022/10/04 07:33:35;;;;;;;2.90;1.30;;;16.60;83.30;;;;;;5054944;28;20506;-78
2022/10/04 07:36:23;;;;;;;2.42;1.23;;;16.60;83.30;;;;;;5068533;28;20025;-78
2022/10/04 07:39:08;;;;;;;2.30;1.30;;;16.60;83.20;;;;;;5066663;28;20020;-77
2022/10/04 07:41:44;;;;;;;2.38;1.10;;;16.60;83.10;;;;;;5066778;28;20078;-78
2022/10/04 07:44:53;;;;;;;1.88;1.10;;;16.70;83.00;;;;;;5067540;28;20393;-78
2022/10/04 07:47:25;;;;;;;3.38;1.23;;;16.80;82.90;;;;;;5008611;28;20056;-77
2022/10/04 07:49:52;;;;;;;2.38;1.20;;;16.90;82.50;;;;;;5059447;28;20056;-78
2022/10/04 07:52:47;;;;;;;2.58;1.20;;;16.90;82.20;;;;;;5065808;28;20024;-77
2022/10/04 07:55:28;;;;;;;4.43;1.30;;;17.00;81.70;;;;;;5064111;28;20191;-77
2022/10/04 07:57:57;;;;;;;;;;;17.00;81.70;;;;;;5067653;28;20060;-77
2022/10/04 08:01:15;;;;;;;2.25;1.25;;;17.00;81.50;;;;;;5066920;28;19947;-77
2022/10/04 08:04:04;;;;;;;2.83;1.20;;;17.10;81.40;;;;;;5045676;28;20036;-78
2022/10/04 08:06:32;;;;;;;2.03;1.30;;;17.10;81.20;;;;;;5066583;28;20035;-77
2022/10/04 08:09:21;;;;;;;2.63;1.08;;;17.20;81.10;;;;;;5064070;28;20028;-77
2022/10/04 08:12:10;;;;;;;1.65;1.13;;;17.20;80.80;;;;;;5065481;28;20034;-77
2022/10/04 08:14:54;;;;;;;2.93;1.30;;;17.30;80.60;;;;;;5065648;28;20040;-77
2022/10/04 08:17:47;;;;;;;3.45;1.58;;;17.40;80.30;;;;;;5066603;28;20269;-77
2022/10/04 08:20:37;;;;;;;2.08;1.20;;;17.50;80.10;;;;;;5066130;28;20056;-77
2022/10/04 08:23:38;;;;;;;2.25;1.25;;;17.60;79.80;;;;;;5064818;28;20062;-77
2022/10/04 08:26:22;;;;;;;2.42;1.20;;;17.60;79.60;;;;;;5066501;28;20028;-77
2022/10/04 08:32:26;;;;;;;2.17;1.20;;;17.60;79.10;;;;;;5065234;28;20086;-77
2022/10/04 08:34:57;;;;;;;2.13;1.30;;;17.70;79.10;;;;;;5064066;28;20097;-77
2022/10/04 08:37:29;;;;;;;1.67;1.10;;;17.80;78.90;;;;;;5063822;28;20615;-78
2022/10/04 08:40:09;;;;;;;;;;;17.80;79.30;;;;;;5064798;28;20032;-77
2022/10/04 08:43:23;;;;;;;1.63;0.98;;;17.90;78.70;;;;;;5065625;28;20022;-77
2022/10/04 08:45:55;;;;;;;1.92;1.13;;;17.90;78.50;;;;;;5064234;28;20119;-77
2022/10/04 08:48:59;;;;;;;2.22;1.20;;;18.00;78.40;;;;;;5064235;28;20054;-76
2022/10/04 08:52:03;;;;;;;2.45;1.20;;;18.00;78.20;;;;;;5064749;28;20673;-77
2022/10/04 08:55:00;;;;;;;1.88;1.10;;;18.00;78.10;;;;;;5067548;28;20029;-78
2022/10/04 08:58:02;;;;;;;2.35;1.20;;;18.10;78.70;;;;;;5069633;28;20056;-77
2022/10/04 09:00:48;;;;;;;1.85;1.00;;;18.00;78.10;;;;;;5068408;28;20094;-77
2022/10/04 09:04:00;;;;;;;2.25;1.15;;;18.10;78.20;;;;;;5068832;28;20393;-78
2022/10/04 09:06:31;;;;;;;1.85;1.10;;;18.10;78.30;;;;;;5069715;28;20043;-77
2022/10/04 09:09:39;;;;;;;2.17;1.15;;;18.10;78.50;;;;;;5068490;28;20048;-78
2022/10/04 09:12:31;;;;;;;2.33;1.20;;;18.10;78.20;;;;;;5067576;28;20063;-77
2022/10/04 09:15:24;;;;;;;2.67;1.20;;;18.10;78.20;;;;;;5069067;28;20028;-78
2022/10/04 09:18:28;;;;;;;2.78;1.48;;;18.20;78.30;;;;;;5067699;28;20027;-78
2022/10/04 09:21:10;;;;;;;1.98;1.10;;;18.10;78.20;;;;;;5068047;28;20025;-78
2022/10/04 09:24:13;;;;;;;2.08;1.20;;;18.20;78.20;;;;;;5068926;28;20302;-77
2022/10/04 09:26:44;;;;;;;2.15;1.20;;;18.20;78.20;;;;;;5069359;28;20383;-78
2022/10/04 09:29:44;;;;;;;2.35;1.17;;;18.10;78.20;;;;;;5068071;28;20033;-77
2022/10/04 09:32:18;;;;;;;1.98;1.30;;;18.20;78.30;;;;;;5068314;28;20033;-77
2022/10/04 09:35:15;;;;;;;1.83;1.10;;;18.20;78.30;;;;;;5068985;28;20525;-77
2022/10/04 09:38:01;;;;;;;2.60;1.20;;;18.20;78.30;;;;;;5067716;28;20039;-78
2022/10/04 09:40:27;;;;;;;2.63;1.20;;;18.20;78.20;;;;;;5068493;28;20024;-78
2022/10/04 09:43:21;;;;;;;2.38;1.20;;;18.20;78.20;;;;;;5066680;28;20028;-78
2022/10/04 09:46:15;;;;;;;2.55;1.10;;;18.30;78.10;;;;;;5068623;28;20074;-77
2022/10/04 09:48:57;;;;;;;2.03;1.20;;;18.30;78.00;;;;;;5066361;28;20028;-78
2022/10/04 09:51:50;;;;;;;1.80;1.05;;;18.30;77.90;;;;;;5071698;28;20027;-78
2022/10/04 09:54:56;;;;;;;2.03;1.10;;;18.30;77.90;;;;;;5058857;28;20033;-78
2022/10/04 09:57:57;;;;;;;2.03;1.10;;;18.30;77.90;;;;;;5070693;28;20623;-78
2022/10/04 10:00:32;;;;;;;1.60;0.98;;;18.30;77.90;;;;;;5070869;28;20116;-77
2022/10/04 10:03:30;;;;;;;2.75;1.30;;;18.30;78.00;;;;;;5070569;28;20039;-78
2022/10/04 10:06:09;;;;;;;2.15;1.08;;;18.30;78.10;;;;;;5069811;28;20035;-78
2022/10/04 10:08:44;;;;;;;2.20;1.20;;;18.30;78.20;;;;;;5069130;28;20025;-78
2022/10/04 10:14:40;;;;;;;1.65;1.10;;;18.30;78.30;;;;;;5070155;28;20039;-78
2022/10/04 10:17:43;;;;;;;1.70;1.00;;;18.30;78.30;;;;;;5068466;28;20056;-78
2022/10/04 10:20:31;;;;;;;1.75;1.00;;;18.30;78.30;;;;;;5067417;28;20355;-78
2022/10/04 10:23:22;;;;;;;2.20;1.20;;;18.30;78.30;;;;;;5067817;28;20040;-78
2022/10/04 10:26:22;;;;;;;1.90;1.13;;;18.30;78.40;;;;;;5067371;28;20028;-78
2022/10/04 10:29:01;;;;;;;1.08;0.80;;;18.30;78.40;;;;;;5067490;28;20052;-78
2022/10/04 10:31:56;;;;;;;1.67;1.00;;;18.30;78.40;;;;;;5066491;28;20482;-79
2022/10/04 10:34:51;;;;;;;2.10;1.00;;;18.30;78.40;;;;;;5030383;28;20080;-78
2022/10/04 10:37:45;;;;;;;1.98;1.02;;;18.30;78.50;;;;;;5066918;28;20074;-77
2022/10/04 10:40:35;;;;;;;1.90;1.08;;;18.30;78.50;;;;;;5067243;28;20672;-77
2022/10/04 10:43:19;;;;;;;1.30;1.00;;;18.30;78.50;;;;;;5068297;28;20032;-77
2022/10/04 10:45:59;;;;;;;2.13;1.20;;;18.30;78.50;;;;;;5068150;28;20032;-77
2022/10/04 10:48:52;;;;;;;1.60;1.00;;;18.30;78.40;;;;;;5067931;28;20103;-78
2022/10/04 10:51:24;;;;;;;2.55;1.13;;;18.30;78.40;;;;;;5070889;28;20032;-78
2022/10/04 10:53:59;;;;;;;3.00;1.30;;;18.30;78.40;;;;;;5070955;28;20036;-79
2022/10/04 10:56:36;;;;;;;2.40;1.20;;;18.40;78.40;;;;;;5069591;28;20378;-78
2022/10/04 10:59:22;;;;;;;1.75;1.00;;;18.30;78.40;;;;;;5069945;28;20055;-78
2022/10/04 11:02:13;;;;;;;1.23;0.90;;;18.30;78.40;;;;;;5070042;28;20021;-77
2022/10/04 11:05:11;;;;;;;2.05;1.10;;;18.30;78.40;;;;;;5065080;28;20032;-77
2022/10/04 11:07:54;;;;;;;1.67;1.00;;;18.30;78.50;;;;;;5066697;28;20051;-77
2022/10/04 11:10:41;;;;;;;1.67;0.93;;;18.30;78.70;;;;;;5067673;28;20092;-78
2022/10/04 11:13:36;;;;;;;2.22;1.08;;;18.30;78.70;;;;;;5067360;28;20031;-78
2022/10/04 11:16:18;;;;;;;1.67;1.00;;;18.30;78.70;;;;;;5068634;28;20203;-78
2022/10/04 11:19:16;;;;;;;1.77;1.00;;;18.30;79.20;;;;;;5066422;28;20402;-77
2022/10/04 11:22:05;;;;;;;1.77;1.10;;;18.30;78.70;;;;;;5063214;28;20094;-78
2022/10/04 11:25:17;;;;;;;1.90;1.10;;;18.30;78.80;;;;;;5066631;28;20427;-78
2022/10/04 11:28:15;;;;;;;1.75;0.90;;;18.30;78.80;;;;;;5023742;28;20033;-77
2022/10/04 11:31:09;;;;;;;2.25;1.00;;;18.30;78.90;;;;;;5024033;28;20400;-77
2022/10/04 11:33:58;;;;;;;2.05;1.10;;;18.30;78.90;;;;;;5061871;28;20033;-77
2022/10/04 11:36:31;;;;;;;3.05;1.20;;;18.30;78.90;;;;;;5067438;28;20108;-77
2022/10/04 11:39:02;;;;;;;2.00;1.10;;;18.30;78.80;;;;;;5068032;28;20327;-78
2022/10/04 11:41:47;;;;;;;1.88;1.05;;;18.30;78.80;;;;;;5065493;28;20087;-77
2022/10/04 11:44:47;;;;;;;1.95;1.05;;;18.20;78.80;;;;;;5064987;28;20064;-77
2022/10/04 11:47:44;;;;;;;1.92;1.13;;;18.30;78.70;;;;;;5064895;28;20021;-78
2022/10/04 11:50:39;;;;;;;1.30;1.00;;;18.40;78.60;;;;;;5066020;28;20452;-78
2022/10/04 11:53:38;;;;;;;1.30;0.95;;;18.40;78.50;;;;;;5066470;28;20490;-78
2022/10/04 11:56:33;;;;;;;2.05;1.10;;;18.40;78.40;;;;;;5065597;28;20299;-78
2022/10/04 11:59:08;;;;;;;1.77;1.10;;;18.40;78.40;;;;;;5067116;28;20493;-78
2022/10/04 12:01:43;;;;;;;1.55;0.90;;;18.40;78.50;;;;;;5066359;28;20297;-79
2022/10/04 12:04:27;;;;;;;1.77;1.10;;;18.30;78.60;;;;;;5066494;28;20039;-77
2022/10/04 12:07:25;;;;;;;1.45;1.00;;;18.30;78.80;;;;;;5066262;28;20024;-78
2022/10/04 12:10:19;;;;;;;1.40;1.00;;;18.30;78.90;;;;;;5064217;28;20037;-78
2022/10/04 12:13:16;;;;;;;1.85;1.05;;;18.30;79.00;;;;;;5064214;28;20091;-77
2022/10/04 12:16:03;;;;;;;1.30;1.00;;;18.20;79.10;;;;;;5066421;28;20492;-77
2022/10/04 12:19:22;;;;;;;2.17;1.00;;;18.20;79.10;;;;;;5064662;28;20028;-77
2022/10/04 12:22:00;;;;;;;1.88;1.00;;;18.20;79.10;;;;;;5065094;28;20060;-79
2022/10/04 12:24:41;;;;;;;2.08;0.98;;;18.20;79.20;;;;;;5064607;28;20424;-77
2022/10/04 12:27:25;;;;;;;1.80;1.00;;;18.20;79.20;;;;;;5064285;28;20063;-77
2022/10/04 12:30:09;;;;;;;2.00;1.20;;;18.20;79.20;;;;;;5065969;28;20402;-77
2022/10/04 12:32:54;;;;;;;1.63;0.95;;;18.20;79.20;;;;;;5065621;28;20036;-78
2022/10/04 12:35:35;;;;;;;1.83;1.10;;;18.20;79.20;;;;;;5066026;28;20099;-78
2022/10/04 12:38:22;;;;;;;1.23;0.95;;;18.10;79.20;;;;;;5063765;28;20036;-77
2022/10/04 12:41:03;;;;;;;1.50;0.95;;;18.20;79.30;;;;;;5064526;28;20499;-78
2022/10/04 12:43:59;;;;;;;1.58;0.90;;;18.20;79.30;;;;;;5064003;28;20131;-78
2022/10/04 12:47:02;;;;;;;1.17;0.90;;;18.20;79.40;;;;;;5066210;28;20062;-78
2022/10/04 12:49:55;;;;;;;1.88;1.00;;;18.20;79.40;;;;;;5065396;28;20211;-78
2022/10/04 12:52:25;;;;;;;1.30;0.90;;;18.20;79.30;;;;;;5065516;28;20027;-77
2022/10/04 12:55:19;;;;;;;2.13;1.20;;;18.20;79.30;;;;;;5064681;28;20028;-77
2022/10/04 12:57:59;;;;;;;1.70;1.00;;;18.20;79.30;;;;;;5062852;28;20032;-78
2022/10/04 13:00:28;;;;;;;1.70;1.00;;;18.20;79.50;;;;;;5060653;28;20056;-78
2022/10/04 13:03:17;;;;;;;1.80;1.00;;;18.20;79.70;;;;;;5045420;28;20490;-78
2022/10/04 13:05:46;;;;;;;2.70;1.10;;;18.10;79.70;;;;;;5055206;28;20325;-78
2022/10/04 13:08:44;;;;;;;2.10;1.08;;;18.10;79.90;;;;;;5063870;28;20472;-76
2022/10/04 13:11:40;;;;;;;1.55;1.00;;;18.10;79.90;;;;;;5078863;28;20024;-77
2022/10/04 13:14:27;;;;;;;1.98;1.23;;;18.00;80.00;;;;;;5063658;28;20037;-77
2022/10/04 13:17:15;;;;;;;1.70;1.10;;;18.00;80.20;;;;;;5063784;28;20580;-77
2022/10/04 13:20:14;;;;;;;2.58;1.10;;;18.00;80.20;;;;;;5068802;28;20058;-78
2022/10/04 13:22:44;;;;;;;2.03;1.15;;;18.00;80.20;;;;;;5065457;28;20029;-79
2022/10/04 13:25:25;;;;;;;2.78;1.20;;;17.90;80.20;;;;;;5082055;28;20028;-78
2022/10/04 13:28:06;;;;;;;;;;;17.90;80.20;;;;;;5064723;28;20036;-78
2022/10/04 13:30:48;;;;;;;1.58;1.17;;;17.90;80.30;;;;;;5065091;28;19912;-78
2022/10/04 13:33:26;;;;;;;1.67;1.00;;;17.90;80.30;;;;;;5066250;28;20035;-77
2022/10/04 13:36:08;;;;;;;3.75;1.27;;;17.90;80.50;;;;;;5081153;28;20033;-78
2022/10/04 13:38:46;;;;;;;1.73;1.00;;;17.90;80.40;;;;;;5081312;28;20502;-79
2022/10/04 13:41:42;;;;;;;1.98;1.20;;;17.90;80.50;;;;;;5084323;28;20035;-78
2022/10/04 13:44:32;;;;;;;2.22;1.10;;;17.90;80.40;;;;;;5068490;28;20032;-78
2022/10/04 13:47:16;;;;;;;2.70;1.20;;;17.80;80.30;;;;;;5068923;28;20028;-78
2022/10/04 13:50:05;;;;;;;1.88;1.05;;;17.90;80.30;;;;;;5067159;28;20477;-78
2022/10/04 13:58:46;;;;;;;2.58;1.10;;;17.90;80.10;;;;;;5087148;28;20082;-77
2022/10/04 14:01:30;;;;;;;;;;;17.90;80.20;;;;;;5071376;28;20111;-78
2022/10/04 14:04:04;;;;;;;1.10;1.00;;;17.80;80.30;;;;;;5067535;28;19919;-79
2022/10/04 14:06:58;;;;;;;1.60;1.20;;;17.80;80.50;;;;;;5068432;28;20108;-78
2022/10/04 14:09:45;;;;;;;2.28;1.17;;;17.80;80.60;;;;;;5054746;28;20024;-78
2022/10/04 14:12:52;;;;;;;2.50;1.17;;;17.80;80.70;;;;;;5066507;28;20239;-77
2022/10/04 14:15:40;;;;;;;1.85;1.08;;;17.70;81.40;;;;;;5052340;28;20070;-77
2022/10/04 14:18:27;;;;;;;2.05;1.10;;;17.70;80.90;;;;;;5067198;28;20032;-78
2022/10/04 14:21:23;;;;;;;2.90;1.30;;;17.70;81.00;;;;;;5066005;28;20029;-78
2022/10/04 14:24:14;;;;;;;3.28;1.30;;;17.70;81.10;;;;;;5066504;28;20111;-78
2022/10/04 14:27:15;;;;;;;2.13;1.27;;;17.60;81.20;;;;;;5068561;28;20052;-77
2022/10/04 14:29:53;;;;;;;2.95;1.30;;;17.60;81.50;;;;;;5067199;28;20563;-79